< < Back
Terminal Aerodrome Forecast


Current Version              Previous Versions:   1  2  3  4  5  6  7  8  9  

Terminal Aerodrome Forecast

347
FTUS42 KTAE 010520
TAFABY
TAF
KABY 010520Z 0106/0206 17005KT P6SM BKN070
     FM011000 16003KT 5SM BR SCT250
     FM011300 20009KT P6SM SCT040 SCT250
     FM020000 19004KT P6SM SCT250=



Latest METAR

128
SAUS70 KWBC 011900 RRU
MTRABY
METAR KABY 011853Z 24006KT 10SM SCT047 BKN100 31/19 A3002 RMK AO2 SLP163
T03110189


USA.gov is the U.S. government's official web portal to all federal, state and local government web resources and services.